Time;durP1;ratioP1;P1;durP2;ratioP2;P2;SDS_P1;SDS_P2;PMS_P1;PMS_P2;Temp;Humidity;BMP_temperature;BMP_pressure;BME280_temperature;BME280_humidity;BME280_pressure;Samples;Min_cycle;Max_cycle;Signal;HPM_P1;HPM_P2
2022/05/26 00:01:10;;;;;;;5.80;2.83;;;;;;;;;;5052692;28;20475;-40
2022/05/26 00:03:36;;;;;;;5.40;2.80;;;;;;;;;;5052892;28;20029;-40
2022/05/26 00:06:02;;;;;;;6.75;3.20;;;;;;;;;;5052594;28;20082;-40
2022/05/26 00:08:28;;;;;;;5.57;2.95;;;;;;;;;;5053339;28;20028;-40
2022/05/26 00:10:54;;;;;;;4.97;3.00;;;;;;;;;;5053020;28;20483;-40
2022/05/26 00:13:20;;;;;;;5.10;3.42;;;;;;;;;;5051915;28;20551;-41
2022/05/26 00:15:45;;;;;;;6.40;3.20;;;;;;;;;;5053010;28;20104;-39
2022/05/26 00:18:10;;;;;;;4.75;3.78;;;;;;;;;;5052408;28;20387;-40
2022/05/26 00:20:36;;;;;;;6.72;3.60;;;;;;;;;;5052703;28;20074;-40
2022/05/26 00:23:01;;;;;;;9.35;3.38;;;;;;;;;;5052604;28;20063;-40
2022/05/26 00:25:27;;;;;;;4.22;2.78;;;;;;;;;;5051006;28;20105;-40
2022/05/26 00:27:52;;;;;;;4.28;3.03;;;;;;;;;;5052426;28;20021;-40
2022/05/26 00:30:17;;;;;;;6.82;3.33;;;;;;;;;;5052338;28;20021;-40
2022/05/26 00:32:43;;;;;;;7.88;4.25;;;;;;;;;;5052403;28;20029;-40
2022/05/26 00:35:09;;;;;;;5.38;2.90;;;;;;;;;;5052412;28;20017;-40
2022/05/26 00:37:34;;;;;;;6.65;3.63;;;;;;;;;;5052118;28;20025;-40
2022/05/26 00:40:01;;;;;;;5.70;3.00;;;;;;;;;;5052009;28;20025;-40
2022/05/26 00:42:27;;;;;;;9.98;3.88;;;;;;;;;;5052262;28;20082;-40
2022/05/26 00:44:52;;;;;;;8.38;3.75;;;;;;;;;;5051996;28;20084;-40
2022/05/26 00:47:20;;;;;;;7.03;3.20;;;;;;;;;;5051974;28;20032;-40
2022/05/26 00:49:58;;;;;;;6.07;3.72;;;;;;;;;;5051903;28;20024;-40
2022/05/26 00:52:37;;;;;;;7.30;3.08;;;;;;;;;;5051853;28;20044;-40
2022/05/26 00:55:05;;;;;;;6.75;2.78;;;;;;;;;;5051947;28;20033;-40
2022/05/26 00:57:33;;;;;;;6.63;3.72;;;;;;;;;;5051908;28;20057;-41
2022/05/26 01:00:10;;;;;;;4.20;2.65;;;;;;;;;;5051641;28;20037;-40
2022/05/26 01:02:38;;;;;;;4.38;2.95;;;;;;;;;;5051629;28;20564;-40
2022/05/26 01:05:08;;;;;;;6.43;3.17;;;;;;;;;;5051575;28;20013;-40
2022/05/26 01:07:36;;;;;;;5.22;3.05;;;;;;;;;;5051991;28;20108;-41
2022/05/26 01:10:01;;;;;;;2.95;2.50;;;;;;;;;;5051725;28;20035;-40
2022/05/26 01:12:26;;;;;;;7.32;2.97;;;;;;;;;;5051568;28;20742;-40
2022/05/26 01:14:55;;;;;;;7.13;3.13;;;;;;;;;;5051838;28;20126;-41
2022/05/26 01:17:26;;;;;;;6.07;3.42;;;;;;;;;;5051320;28;20502;-40
2022/05/26 01:19:57;;;;;;;5.72;3.40;;;;;;;;;;5051517;28;20037;-40
2022/05/26 01:22:25;;;;;;;11.57;3.53;;;;;;;;;;5051173;28;20390;-40
2022/05/26 01:25:09;;;;;;;8.65;3.90;;;;;;;;;;5051052;28;20029;-40
2022/05/26 01:27:39;;;;;;;10.43;4.38;;;;;;;;;;5051335;28;20028;-39
2022/05/26 01:30:16;;;;;;;5.30;3.20;;;;;;;;;;5051207;28;20048;-40
2022/05/26 01:33:00;;;;;;;4.97;3.65;;;;;;;;;;5051225;28;20104;-40
2022/05/26 01:35:31;;;;;;;4.57;3.08;;;;;;;;;;5051257;28;20061;-40
2022/05/26 01:38:00;;;;;;;6.45;3.65;;;;;;;;;;5051229;28;20021;-40
2022/05/26 01:40:32;;;;;;;6.47;3.28;;;;;;;;;;5049956;28;20024;-40
2022/05/26 01:42:58;;;;;;;6.18;3.65;;;;;;;;;;5051677;28;20033;-39
2022/05/26 01:45:32;;;;;;;4.45;3.35;;;;;;;;;;5051348;28;20017;-40
2022/05/26 01:48:01;;;;;;;5.40;2.72;;;;;;;;;;5051411;28;20387;-40
2022/05/26 01:50:45;;;;;;;6.50;3.22;;;;;;;;;;5051163;28;20082;-40
2022/05/26 01:53:29;;;;;;;3.50;3.17;;;;;;;;;;5051557;28;20040;-40
2022/05/26 01:56:16;;;;;;;5.88;3.30;;;;;;;;;;5051014;28;20107;-40
2022/05/26 01:58:43;;;;;;;7.15;2.92;;;;;;;;;;5051054;28;20511;-40
2022/05/26 02:01:11;;;;;;;15.95;3.35;;;;;;;;;;5050726;28;20091;-42
2022/05/26 02:03:38;;;;;;;5.10;2.90;;;;;;;;;;5051373;28;20037;-40
2022/05/26 02:06:26;;;;;;;8.32;3.63;;;;;;;;;;5049498;28;20028;-40
2022/05/26 02:08:51;;;;;;;7.53;2.97;;;;;;;;;;5051087;28;20387;-40
2022/05/26 02:11:18;;;;;;;3.13;2.38;;;;;;;;;;5050837;28;20021;-40
2022/05/26 02:13:53;;;;;;;6.13;2.25;;;;;;;;;;5050725;28;20041;-40
2022/05/26 02:16:22;;;;;;;3.95;1.98;;;;;;;;;;5050692;28;20467;-40
2022/05/26 02:18:47;;;;;;;6.10;2.03;;;;;;;;;;5050943;28;20028;-40
2022/05/26 02:21:16;;;;;;;3.50;1.75;;;;;;;;;;5050840;28;20037;-40
2022/05/26 02:24:03;;;;;;;7.45;2.55;;;;;;;;;;5050884;28;20020;-40
2022/05/26 02:26:29;;;;;;;6.30;2.05;;;;;;;;;;5050939;28;20430;-44
2022/05/26 02:31:40;;;;;;;2.28;2.08;;;;;;;;;;5050899;28;20028;-40
2022/05/26 02:34:06;;;;;;;5.43;2.53;;;;;;;;;;5050914;28;20028;-40
2022/05/26 02:36:34;;;;;;;3.20;2.83;;;;;;;;;;5051512;28;20426;-40
2022/05/26 02:38:59;;;;;;;6.30;2.50;;;;;;;;;;5054765;28;20056;-40
2022/05/26 02:41:25;;;;;;;5.32;2.00;;;;;;;;;;5054123;28;20079;-40
2022/05/26 02:43:51;;;;;;;9.20;2.78;;;;;;;;;;5054221;28;20029;-40
2022/05/26 02:46:36;;;;;;;3.88;1.48;;;;;;;;;;5054290;28;20037;-40
2022/05/26 02:49:07;;;;;;;7.93;1.80;;;;;;;;;;5054039;28;20376;-41
2022/05/26 02:51:32;;;;;;;3.92;2.17;;;;;;;;;;5054520;28;20032;-40
2022/05/26 02:54:10;;;;;;;2.95;1.60;;;;;;;;;;5054107;28;20517;-40
2022/05/26 02:56:49;;;;;;;6.47;3.08;;;;;;;;;;5054090;28;20098;-42
2022/05/26 02:59:17;;;;;;;7.65;1.55;;;;;;;;;;5054047;28;20021;-40
2022/05/26 03:01:55;;;;;;;2.15;1.25;;;;;;;;;;5053946;28;20029;-40
2022/05/26 03:04:39;;;;;;;1.83;1.20;;;;;;;;;;5054481;28;20182;-40
2022/05/26 03:07:10;;;;;;;3.65;2.05;;;;;;;;;;5053847;28;20039;-40
2022/05/26 03:09:36;;;;;;;3.42;1.63;;;;;;;;;;5052767;28;20064;-40
2022/05/26 03:12:02;;;;;;;5.00;2.15;;;;;;;;;;5053652;28;20021;-40
2022/05/26 03:14:28;;;;;;;3.80;1.17;;;;;;;;;;5053616;28;20055;-40
2022/05/26 03:16:53;;;;;;;4.68;1.33;;;;;;;;;;5053717;28;20029;-40
2022/05/26 03:19:19;;;;;;;5.15;1.58;;;;;;;;;;5053874;28;20037;-40
2022/05/26 03:21:45;;;;;;;5.90;2.15;;;;;;;;;;5053845;28;20033;-40
2022/05/26 03:24:11;;;;;;;3.85;1.48;;;;;;;;;;5053469;28;20442;-39
2022/05/26 03:26:36;;;;;;;2.28;1.60;;;;;;;;;;5053574;28;20104;-40
2022/05/26 03:29:02;;;;;;;1.88;1.48;;;;;;;;;;5052190;28;20028;-41
2022/05/26 03:31:27;;;;;;;2.05;1.15;;;;;;;;;;5053572;28;20017;-40
2022/05/26 03:42:06;;;;;;;3.35;1.10;;;;;;;;;;5053109;28;20041;-40
2022/05/26 03:44:32;;;;;;;1.80;1.17;;;;;;;;;;5053473;28;20013;-40
2022/05/26 03:46:58;;;;;;;2.30;1.02;;;;;;;;;;5053174;28;20037;-40
2022/05/26 03:49:23;;;;;;;4.50;1.10;;;;;;;;;;5052351;28;20104;-40
2022/05/26 03:51:48;;;;;;;1.23;1.10;;;;;;;;;;5053332;28;20032;-43
2022/05/26 03:54:14;;;;;;;5.25;1.10;;;;;;;;;;5052942;28;20017;-40
2022/05/26 03:56:39;;;;;;;5.72;1.33;;;;;;;;;;5053111;28;20032;-40
2022/05/26 03:59:05;;;;;;;2.25;1.00;;;;;;;;;;5052991;28;20044;-40
2022/05/26 04:01:30;;;;;;;3.72;1.00;;;;;;;;;;5053118;28;20049;-40
2022/05/26 04:03:56;;;;;;;4.35;1.17;;;;;;;;;;5052895;28;20021;-40
2022/05/26 04:06:22;;;;;;;4.25;1.02;;;;;;;;;;5051405;28;20442;-40
2022/05/26 04:08:48;;;;;;;1.85;1.02;;;;;;;;;;5052834;28;20028;-40
2022/05/26 04:11:14;;;;;;;1.55;0.90;;;;;;;;;;5052476;28;20020;-40
2022/05/26 04:13:40;;;;;;;2.10;1.00;;;;;;;;;;5052591;28;20576;-40
2022/05/26 04:16:05;;;;;;;2.83;0.90;;;;;;;;;;5052551;28;20074;-40
2022/05/26 04:18:31;;;;;;;3.40;1.00;;;;;;;;;;5052809;28;20028;-40
2022/05/26 04:21:03;;;;;;;6.18;2.00;;;;;;;;;;5052707;28;20420;-41
2022/05/26 04:23:29;;;;;;;2.83;1.30;;;;;;;;;;5052395;28;20467;-40
2022/05/26 04:25:54;;;;;;;0.80;0.50;;;;;;;;;;5052424;28;20033;-40
2022/05/26 04:28:19;;;;;;;1.17;0.90;;;;;;;;;;5052355;28;20032;-40
2022/05/26 04:30:45;;;;;;;3.00;0.88;;;;;;;;;;5052572;28;20017;-40
2022/05/26 04:33:10;;;;;;;1.08;0.50;;;;;;;;;;5052343;28;20460;-39
2022/05/26 04:35:36;;;;;;;1.15;1.05;;;;;;;;;;5052384;28;20032;-39
2022/05/26 04:38:02;;;;;;;0.70;0.52;;;;;;;;;;5052072;28;20480;-39
2022/05/26 04:40:28;;;;;;;1.02;0.50;;;;;;;;;;5052065;28;20021;-40
2022/05/26 04:42:54;;;;;;;3.30;1.00;;;;;;;;;;5051996;28;20029;-40
2022/05/26 04:45:21;;;;;;;1.13;0.90;;;;;;;;;;5052009;28;20044;-39
2022/05/26 04:47:47;;;;;;;1.52;0.73;;;;;;;;;;5052083;28;20025;-41
2022/05/26 04:50:14;;;;;;;1.60;0.65;;;;;;;;;;5050430;28;20101;-40
2022/05/26 04:52:39;;;;;;;0.57;0.50;;;;;;;;;;5052168;28;20112;-40
2022/05/26 04:55:05;;;;;;;0.80;0.80;;;;;;;;;;5051679;28;20167;-40
2022/05/26 04:57:32;;;;;;;1.02;0.70;;;;;;;;;;5052174;28;20032;-40
2022/05/26 04:59:57;;;;;;;0.68;0.50;;;;;;;;;;5050463;28;20494;-40
2022/05/26 05:02:25;;;;;;;1.13;0.73;;;;;;;;;;5051868;28;20049;-40
2022/05/26 05:04:51;;;;;;;2.35;0.70;;;;;;;;;;5051731;28;20021;-40
2022/05/26 05:07:18;;;;;;;0.95;0.88;;;;;;;;;;5050257;28;20032;-41
2022/05/26 05:09:44;;;;;;;0.50;0.50;;;;;;;;;;5051918;28;20033;-40
2022/05/26 05:12:13;;;;;;;0.60;0.60;;;;;;;;;;5051378;28;20100;-40
2022/05/26 05:14:43;;;;;;;4.32;0.60;;;;;;;;;;5051519;28;20040;-40
2022/05/26 05:17:08;;;;;;;1.00;0.70;;;;;;;;;;5050126;28;20024;-40
2022/05/26 05:19:34;;;;;;;0.75;0.68;;;;;;;;;;5051718;28;20375;-40
2022/05/26 05:22:03;;;;;;;0.85;0.60;;;;;;;;;;5051350;28;20037;-40
2022/05/26 05:24:29;;;;;;;0.40;0.40;;;;;;;;;;5051354;28;20682;-40
2022/05/26 05:27:00;;;;;;;1.05;0.40;;;;;;;;;;5051398;28;20051;-40
2022/05/26 05:29:29;;;;;;;1.58;0.47;;;;;;;;;;5051498;28;20059;-41
2022/05/26 05:31:59;;;;;;;0.30;0.30;;;;;;;;;;5051213;28;20021;-40
2022/05/26 05:34:31;;;;;;;1.65;0.65;;;;;;;;;;5051306;28;20035;-40
2022/05/26 05:36:58;;;;;;;2.85;0.40;;;;;;;;;;5051362;28;20536;-40
2022/05/26 05:39:24;;;;;;;1.17;0.75;;;;;;;;;;5051176;28;20033;-40
2022/05/26 05:41:50;;;;;;;0.90;0.35;;;;;;;;;;5051094;28;20045;-40
2022/05/26 05:44:16;;;;;;;1.15;1.05;;;;;;;;;;5051154;28;20456;-40
2022/05/26 05:46:53;;;;;;;0.85;0.40;;;;;;;;;;5051110;28;20040;-40
2022/05/26 05:49:23;;;;;;;1.60;0.45;;;;;;;;;;5051171;28;20028;-40
2022/05/26 05:51:49;;;;;;;0.82;0.47;;;;;;;;;;5051128;28;20423;-39
2022/05/26 05:54:15;;;;;;;0.43;0.35;;;;;;;;;;5051277;28;20033;-40
2022/05/26 05:56:40;;;;;;;0.50;0.50;;;;;;;;;;5051382;28;20025;-39
2022/05/26 05:59:06;;;;;;;0.68;0.60;;;;;;;;;;5050969;28;20089;-40
2022/05/26 06:01:32;;;;;;;4.57;0.57;;;;;;;;;;5050914;28;20025;-40
2022/05/26 06:03:57;;;;;;;0.30;0.30;;;;;;;;;;5050092;28;20032;-39
2022/05/26 06:06:22;;;;;;;0.30;0.30;;;;;;;;;;5050942;28;20028;-40
2022/05/26 06:08:48;;;;;;;0.25;0.20;;;;;;;;;;5051217;28;20025;-43
2022/05/26 06:11:14;;;;;;;0.25;0.25;;;;;;;;;;5051318;28;20016;-40
2022/05/26 06:13:40;;;;;;;1.23;0.38;;;;;;;;;;5054831;28;20126;-40
2022/05/26 06:16:05;;;;;;;0.57;0.40;;;;;;;;;;5055084;28;20032;-39
2022/05/26 06:18:34;;;;;;;0.47;0.40;;;;;;;;;;5054778;28;20024;-40
2022/05/26 06:21:03;;;;;;;0.60;0.50;;;;;;;;;;5054740;28;20037;-40
2022/05/26 06:23:28;;;;;;;0.40;0.32;;;;;;;;;;5054535;28;20033;-40
2022/05/26 06:25:53;;;;;;;1.08;0.77;;;;;;;;;;5054781;28;20073;-39
2022/05/26 06:31:13;;;;;;;2.45;0.30;;;;;;;;;;5069923;28;20056;-40
2022/05/26 06:37:13;;;;;;;0.55;0.43;;;;;;;;;;5054419;28;20037;-40
2022/05/26 06:39:26;;;;;;;1.40;0.40;;;;;;;;;;5053099;28;20037;-39
2022/05/26 06:42:07;;;;;;;0.40;0.30;;;;;;;;;;5054336;28;20094;-40
2022/05/26 06:44:34;;;;;;;1.13;0.50;;;;;;;;;;5054404;28;20032;-39
2022/05/26 06:46:59;;;;;;;0.60;0.32;;;;;;;;;;5054569;28;20027;-40
2022/05/26 06:49:25;;;;;;;0.43;0.40;;;;;;;;;;5054232;28;20033;-40
2022/05/26 06:51:50;;;;;;;0.55;0.50;;;;;;;;;;5054409;28;20024;-40
2022/05/26 06:54:17;;;;;;;0.98;0.55;;;;;;;;;;5054451;28;20502;-40
2022/05/26 06:56:43;;;;;;;0.77;0.60;;;;;;;;;;5054176;28;20036;-40
2022/05/26 06:59:08;;;;;;;0.57;0.45;;;;;;;;;;5053947;28;20036;-40
2022/05/26 07:01:34;;;;;;;0.50;0.40;;;;;;;;;;5052784;28;20032;-39
2022/05/26 07:03:59;;;;;;;1.77;0.20;;;;;;;;;;5054202;28;20029;-40
2022/05/26 07:06:26;;;;;;;1.98;1.05;;;;;;;;;;5053956;28;20398;-40
2022/05/26 07:08:51;;;;;;;0.52;0.40;;;;;;;;;;5053986;28;20506;-39
2022/05/26 07:11:18;;;;;;;0.60;0.40;;;;;;;;;;5053653;28;20052;-39
2022/05/26 07:13:43;;;;;;;0.47;0.32;;;;;;;;;;5053712;28;20152;-39
2022/05/26 07:16:10;;;;;;;0.55;0.43;;;;;;;;;;5053745;28;20104;-39
2022/05/26 07:18:36;;;;;;;3.00;0.70;;;;;;;;;;5053697;28;20116;-39
2022/05/26 07:21:03;;;;;;;0.98;0.28;;;;;;;;;;5053835;28;20108;-40
2022/05/26 07:23:29;;;;;;;0.98;0.40;;;;;;;;;;5052670;28;20033;-40
2022/05/26 07:25:55;;;;;;;2.78;0.52;;;;;;;;;;5053667;28;20471;-39
2022/05/26 07:28:23;;;;;;;1.50;0.52;;;;;;;;;;5052165;28;20068;-40
2022/05/26 07:30:49;;;;;;;0.52;0.40;;;;;;;;;;5053801;28;20078;-40
2022/05/26 07:33:15;;;;;;;0.52;0.50;;;;;;;;;;5053405;28;20078;-40
2022/05/26 07:35:40;;;;;;;0.43;0.43;;;;;;;;;;5053654;28;20430;-40
2022/05/26 07:43:34;;;;;;;0.52;0.35;;;;;;;;;;5053318;28;20430;-40
2022/05/26 07:46:00;;;;;;;0.70;0.40;;;;;;;;;;5053478;28;20036;-39
2022/05/26 07:48:25;;;;;;;1.00;0.47;;;;;;;;;;5053379;28;20432;-40
2022/05/26 07:50:51;;;;;;;0.38;0.38;;;;;;;;;;5051862;28;20020;-39
2022/05/26 07:53:16;;;;;;;0.90;0.43;;;;;;;;;;5053115;28;20459;-40
2022/05/26 07:55:42;;;;;;;18.90;0.82;;;;;;;;;;5053086;28;20021;-40
2022/05/26 07:58:09;;;;;;;0.45;0.45;;;;;;;;;;5052938;28;20033;-41
2022/05/26 08:00:34;;;;;;;0.40;0.30;;;;;;;;;;5053120;28;20386;-40
2022/05/26 08:03:00;;;;;;;5.10;0.40;;;;;;;;;;5052841;28;20044;-40
2022/05/26 08:05:25;;;;;;;1.08;0.63;;;;;;;;;;5053130;28;20071;-41
2022/05/26 08:07:50;;;;;;;0.73;0.43;;;;;;;;;;5052825;28;20392;-40
2022/05/26 08:10:16;;;;;;;0.50;0.30;;;;;;;;;;5052547;28;20032;-40
2022/05/26 08:12:41;;;;;;;1.23;0.35;;;;;;;;;;5052814;28;20115;-40
2022/05/26 08:15:07;;;;;;;2.70;0.40;;;;;;;;;;5052826;28;20467;-40
2022/05/26 08:17:32;;;;;;;0.40;0.30;;;;;;;;;;5052652;28;20071;-40
2022/05/26 08:19:58;;;;;;;1.25;1.15;;;;;;;;;;5051722;28;20021;-40
2022/05/26 08:22:23;;;;;;;0.32;0.30;;;;;;;;;;5052514;28;20505;-39
2022/05/26 08:24:50;;;;;;;2.17;0.43;;;;;;;;;;5051223;28;20029;-40
2022/05/26 08:27:15;;;;;;;0.60;0.57;;;;;;;;;;5052393;28;20032;-40
2022/05/26 08:29:41;;;;;;;4.28;0.30;;;;;;;;;;5052329;28;20372;-41
2022/05/26 08:32:07;;;;;;;1.83;0.47;;;;;;;;;;5052218;28;20033;-40
2022/05/26 08:34:32;;;;;;;2.50;0.45;;;;;;;;;;5052285;28;20028;-41
2022/05/26 08:36:58;;;;;;;0.20;0.20;;;;;;;;;;5052504;28;20052;-40
2022/05/26 08:39:23;;;;;;;0.70;0.55;;;;;;;;;;5052502;28;20099;-40
2022/05/26 08:41:51;;;;;;;1.85;0.30;;;;;;;;;;5051981;28;20784;-40
2022/05/26 08:44:30;;;;;;;0.40;0.40;;;;;;;;;;5052328;28;20017;-40
2022/05/26 08:47:01;;;;;;;3.45;0.30;;;;;;;;;;5052010;28;20029;-40
2022/05/26 08:49:29;;;;;;;0.95;0.32;;;;;;;;;;5052061;28;20032;-41
2022/05/26 08:51:56;;;;;;;5.57;0.40;;;;;;;;;;5051863;28;20027;-40
2022/05/26 08:54:29;;;;;;;0.52;0.40;;;;;;;;;;5051937;28;20033;-40
2022/05/26 08:56:56;;;;;;;4.80;0.45;;;;;;;;;;5051815;28;20031;-40
2022/05/26 08:59:24;;;;;;;0.70;0.60;;;;;;;;;;5051732;28;20472;-40
2022/05/26 09:01:50;;;;;;;1.27;0.82;;;;;;;;;;5051684;28;20127;-40
2022/05/26 09:04:16;;;;;;;3.58;0.52;;;;;;;;;;5051615;28;20104;-40
2022/05/26 09:15:02;;;;;;;0.68;0.45;;;;;;;;;;5051607;28;20033;-41
2022/05/26 09:17:28;;;;;;;0.52;0.52;;;;;;;;;;5051788;28;20037;-40
2022/05/26 09:19:54;;;;;;;0.57;0.57;;;;;;;;;;5051554;28;20033;-40
2022/05/26 09:22:44;;;;;;;2.65;0.70;;;;;;;;;;5051261;28;20043;-40
2022/05/26 09:25:33;;;;;;;1.73;0.40;;;;;;;;;;5051048;28;20195;-40
2022/05/26 09:27:59;;;;;;;0.82;0.50;;;;;;;;;;5051610;28;20032;-40
2022/05/26 09:30:26;;;;;;;0.70;0.40;;;;;;;;;;5051191;28;20485;-40
2022/05/26 09:32:52;;;;;;;1.27;0.65;;;;;;;;;;5051406;28;20051;-40
2022/05/26 09:35:21;;;;;;;0.70;0.43;;;;;;;;;;5051199;28;20471;-42
2022/05/26 09:37:51;;;;;;;0.63;0.63;;;;;;;;;;5051247;28;20036;-40
2022/05/26 09:40:24;;;;;;;1.08;0.77;;;;;;;;;;5051228;28;20036;-40
2022/05/26 09:42:51;;;;;;;1.48;0.70;;;;;;;;;;5051038;28;20122;-39
2022/05/26 09:45:17;;;;;;;2.55;0.60;;;;;;;;;;5051451;28;20029;-40
2022/05/26 09:47:43;;;;;;;1.27;0.60;;;;;;;;;;5050434;28;20025;-40
2022/05/26 09:50:10;;;;;;;0.60;0.40;;;;;;;;;;5051049;28;20109;-40
2022/05/26 09:52:49;;;;;;;0.50;0.40;;;;;;;;;;5051199;28;20570;-40
2022/05/26 09:55:20;;;;;;;1.55;0.52;;;;;;;;;;5051293;28;20033;-40
2022/05/26 09:57:46;;;;;;;2.17;0.77;;;;;;;;;;5051090;28;20040;-40
2022/05/26 10:00:16;;;;;;;1.23;0.45;;;;;;;;;;5050924;28;20021;-40
2022/05/26 10:02:41;;;;;;;5.25;0.65;;;;;;;;;;5051243;28;20045;-40
2022/05/26 10:05:18;;;;;;;0.85;0.60;;;;;;;;;;5051001;28;20478;-40
2022/05/26 10:07:57;;;;;;;0.40;0.40;;;;;;;;;;5051028;28;20390;-40
2022/05/26 10:10:26;;;;;;;0.57;0.55;;;;;;;;;;5050758;28;20044;-40
2022/05/26 10:12:55;;;;;;;0.70;0.60;;;;;;;;;;5050884;28;20037;-40
2022/05/26 10:15:24;;;;;;;3.55;0.70;;;;;;;;;;5051102;28;20103;-40
2022/05/26 10:17:56;;;;;;;1.48;0.60;;;;;;;;;;5050989;28;20041;-40
2022/05/26 10:20:22;;;;;;;1.80;0.80;;;;;;;;;;5050994;28;20086;-40
2022/05/26 10:22:51;;;;;;;3.42;0.73;;;;;;;;;;5050872;28;20036;-40
2022/05/26 10:25:24;;;;;;;2.20;0.47;;;;;;;;;;5050729;28;20025;-40
2022/05/26 10:27:52;;;;;;;1.02;0.82;;;;;;;;;;5050910;28;20033;-39
2022/05/26 10:30:24;;;;;;;2.55;0.80;;;;;;;;;;5050593;28;20049;-41
2022/05/26 10:33:02;;;;;;;1.88;0.80;;;;;;;;;;5050770;28;20031;-41
2022/05/26 10:35:30;;;;;;;2.60;0.70;;;;;;;;;;5050590;28;20029;-40
2022/05/26 10:38:10;;;;;;;2.60;0.70;;;;;;;;;;5049461;28;20087;-40
2022/05/26 10:40:36;;;;;;;1.10;0.80;;;;;;;;;;5050539;28;20024;-41
2022/05/26 10:43:12;;;;;;;1.40;1.10;;;;;;;;;;5050634;28;20486;-40
2022/05/26 10:45:41;;;;;;;1.48;0.82;;;;;;;;;;5050537;28;20383;-40
2022/05/26 10:48:22;;;;;;;1.25;1.00;;;;;;;;;;5050655;28;20021;-39
2022/05/26 10:50:51;;;;;;;1.50;0.83;;;;;;;;;;5050619;28;20059;-42
2022/05/26 10:53:25;;;;;;;2.05;0.65;;;;;;;;;;5050405;28;20063;-40
2022/05/26 10:55:59;;;;;;;2.80;0.70;;;;;;;;;;5050532;28;20086;-40
2022/05/26 10:58:32;;;;;;;5.15;1.05;;;;;;;;;;5051495;28;20083;-39
2022/05/26 11:01:01;;;;;;;1.58;0.88;;;;;;;;;;5052707;28;20068;-39
2022/05/26 11:03:30;;;;;;;0.88;0.73;;;;;;;;;;5054038;28;20349;-40
2022/05/26 11:06:03;;;;;;;1.15;0.70;;;;;;;;;;5054025;28;20032;-39
2022/05/26 11:08:34;;;;;;;3.35;0.95;;;;;;;;;;5054212;28;20036;-40
2022/05/26 11:11:06;;;;;;;1.20;0.77;;;;;;;;;;5053886;28;20350;-39
2022/05/26 11:13:53;;;;;;;2.13;0.90;;;;;;;;;;5053503;28;20053;-39
2022/05/26 11:19:13;;;;;;;1.42;0.85;;;;;;;;;;5053606;28;20468;-40
2022/05/26 11:21:39;;;;;;;1.52;1.00;;;;;;;;;;5053855;28;20029;-39
2022/05/26 11:24:10;;;;;;;5.63;1.00;;;;;;;;;;5053736;28;20028;-40
2022/05/26 11:26:40;;;;;;;2.47;0.90;;;;;;;;;;5053635;28;20537;-40
2022/05/26 11:29:12;;;;;;;1.38;1.05;;;;;;;;;;5053537;28;20023;-40
2022/05/26 11:37:28;;;;;;;1.00;0.90;;;;;;;;;;5053404;28;20122;-40
2022/05/26 11:40:08;;;;;;;3.88;1.23;;;;;;;;;;5053278;28;20020;-40
2022/05/26 11:42:35;;;;;;;3.33;1.13;;;;;;;;;;5053077;28;20039;-39
2022/05/26 11:45:10;;;;;;;1.02;0.88;;;;;;;;;;5053279;28;20082;-40
2022/05/26 11:47:49;;;;;;;1.98;1.13;;;;;;;;;;5052152;28;20048;-40
2022/05/26 11:50:23;;;;;;;2.05;1.10;;;;;;;;;;5053065;28;20071;-39
2022/05/26 11:52:48;;;;;;;2.97;1.00;;;;;;;;;;5053043;28;20068;-40
2022/05/26 11:55:18;;;;;;;1.77;1.08;;;;;;;;;;5053079;28;20056;-40
2022/05/26 11:57:44;;;;;;;1.45;1.08;;;;;;;;;;5053060;28;20033;-39
2022/05/26 12:00:15;;;;;;;3.72;1.10;;;;;;;;;;5053118;28;20017;-40
2022/05/26 12:02:41;;;;;;;2.53;1.10;;;;;;;;;;5052907;28;20092;-39
2022/05/26 12:05:26;;;;;;;6.28;1.45;;;;;;;;;;5052807;28;20048;-40
2022/05/26 12:07:51;;;;;;;1.50;1.17;;;;;;;;;;5053156;28;20372;-40
2022/05/26 12:10:18;;;;;;;1.83;1.25;;;;;;;;;;5051958;28;20023;-39
2022/05/26 12:12:44;;;;;;;3.00;1.42;;;;;;;;;;5052642;28;20066;-40
2022/05/26 12:15:21;;;;;;;2.10;1.02;;;;;;;;;;5052646;28;20052;-41
2022/05/26 12:17:50;;;;;;;1.25;0.95;;;;;;;;;;5052742;28;20021;-40
2022/05/26 12:20:16;;;;;;;5.90;1.15;;;;;;;;;;5052495;28;20047;-40
2022/05/26 12:22:51;;;;;;;2.15;1.35;;;;;;;;;;5051228;28;20040;-41
2022/05/26 12:25:21;;;;;;;1.63;1.17;;;;;;;;;;5052589;28;20056;-40
2022/05/26 12:27:56;;;;;;;1.83;0.82;;;;;;;;;;5052782;28;20076;-40
2022/05/26 12:30:39;;;;;;;2.53;1.35;;;;;;;;;;5052286;28;20033;-39
2022/05/26 12:33:17;;;;;;;1.33;1.08;;;;;;;;;;5052649;28;20036;-40
2022/05/26 12:35:48;;;;;;;1.42;0.98;;;;;;;;;;5052260;28;20503;-40
2022/05/26 12:38:25;;;;;;;3.17;1.08;;;;;;;;;;5052239;28;20025;-40
2022/05/26 12:40:51;;;;;;;4.05;1.10;;;;;;;;;;5052094;28;20029;-40
2022/05/26 12:43:32;;;;;;;1.63;0.85;;;;;;;;;;5052171;28;20497;-40
2022/05/26 12:46:16;;;;;;;1.38;1.20;;;;;;;;;;5052129;28;20364;-40
2022/05/26 12:48:49;;;;;;;1.77;1.63;;;;;;;;;;5050789;28;20033;-39
2022/05/26 12:51:15;;;;;;;3.25;1.05;;;;;;;;;;5051855;28;20468;-42
2022/05/26 12:53:47;;;;;;;1.17;1.05;;;;;;;;;;5051987;28;20035;-40
2022/05/26 12:56:14;;;;;;;3.13;1.08;;;;;;;;;;5051892;28;20025;-40
2022/05/26 12:58:44;;;;;;;2.55;1.13;;;;;;;;;;5051960;28;20055;-39
2022/05/26 13:01:13;;;;;;;1.35;1.15;;;;;;;;;;5051608;28;20045;-40
2022/05/26 13:03:38;;;;;;;2.38;1.08;;;;;;;;;;5051841;28;20021;-40
2022/05/26 13:06:09;;;;;;;2.70;1.38;;;;;;;;;;5051744;28;20116;-40
2022/05/26 13:08:47;;;;;;;2.67;1.30;;;;;;;;;;5050449;28;20025;-40
2022/05/26 13:11:18;;;;;;;1.83;1.23;;;;;;;;;;5051569;28;20025;-40
2022/05/26 13:13:47;;;;;;;2.22;1.27;;;;;;;;;;5051586;28;20045;-40
2022/05/26 13:16:32;;;;;;;2.33;1.38;;;;;;;;;;5050202;28;20565;-40
2022/05/26 13:19:30;;;;;;;1.17;1.08;;;;;;;;;;5051644;28;20036;-41
2022/05/26 13:21:56;;;;;;;2.80;1.60;;;;;;;;;;5049226;28;20041;-40
2022/05/26 13:24:27;;;;;;;1.38;1.27;;;;;;;;;;5051323;28;20028;-40
2022/05/26 13:26:58;;;;;;;4.55;1.27;;;;;;;;;;5051508;28;20029;-40
2022/05/26 13:29:24;;;;;;;2.40;1.25;;;;;;;;;;5051541;28;20386;-40
2022/05/26 13:34:43;;;;;;;1.83;1.10;;;;;;;;;;5050027;28;20033;-40
2022/05/26 13:37:29;;;;;;;6.28;2.20;;;;;;;;;;5051295;28;20024;-40
2022/05/26 13:40:04;;;;;;;3.17;1.20;;;;;;;;;;5051088;28;20123;-40
2022/05/26 13:42:30;;;;;;;5.38;1.40;;;;;;;;;;5051179;28;20051;-40
2022/05/26 13:44:55;;;;;;;1.92;1.45;;;;;;;;;;5051196;28;20048;-40
2022/05/26 13:47:21;;;;;;;6.18;1.50;;;;;;;;;;5051235;28;20029;-40
2022/05/26 13:49:59;;;;;;;1.70;1.60;;;;;;;;;;5051037;28;20422;-39
2022/05/26 13:52:25;;;;;;;1.65;1.20;;;;;;;;;;5051367;28;20033;-39
2022/05/26 13:54:55;;;;;;;1.67;1.58;;;;;;;;;;5051022;28;20083;-40
2022/05/26 13:57:22;;;;;;;3.28;1.58;;;;;;;;;;5051000;28;20029;-40
2022/05/26 13:59:53;;;;;;;1.40;1.25;;;;;;;;;;5051080;28;20017;-40
2022/05/26 14:02:28;;;;;;;2.88;1.20;;;;;;;;;;5051215;28;20074;-40
2022/05/26 14:05:12;;;;;;;3.25;1.10;;;;;;;;;;5051326;28;20476;-40
2022/05/26 14:07:40;;;;;;;3.15;1.27;;;;;;;;;;5051087;28;20033;-39
2022/05/26 14:10:15;;;;;;;2.47;1.60;;;;;;;;;;5051229;28;20028;-40
2022/05/26 14:12:41;;;;;;;1.60;1.42;;;;;;;;;;5050765;28;20037;-40
2022/05/26 14:15:07;;;;;;;2.00;1.80;;;;;;;;;;5051021;28;20087;-40
2022/05/26 14:17:34;;;;;;;4.88;1.38;;;;;;;;;;5050837;28;20032;-40
2022/05/26 14:20:05;;;;;;;5.28;1.83;;;;;;;;;;5050863;28;20091;-40
2022/05/26 14:22:31;;;;;;;5.93;1.77;;;;;;;;;;5050629;28;20041;-40
2022/05/26 14:24:58;;;;;;;1.85;1.40;;;;;;;;;;5051168;28;20021;-40
2022/05/26 14:27:27;;;;;;;6.75;1.67;;;;;;;;;;5050661;28;20036;-40
2022/05/26 14:29:58;;;;;;;2.17;1.73;;;;;;;;;;5051085;28;20087;-39
2022/05/26 14:32:28;;;;;;;3.97;1.75;;;;;;;;;;5051445;28;20037;-39
2022/05/26 14:34:58;;;;;;;3.17;1.27;;;;;;;;;;5053361;28;20029;-40
2022/05/26 14:37:25;;;;;;;1.77;1.67;;;;;;;;;;5054625;28;20468;-40
2022/05/26 14:39:50;;;;;;;4.75;1.60;;;;;;;;;;5054465;28;20040;-39
2022/05/26 14:42:36;;;;;;;4.40;1.58;;;;;;;;;;5054382;28;20037;-39
2022/05/26 14:45:03;;;;;;;3.05;1.52;;;;;;;;;;5054221;28;20041;-40
2022/05/26 14:47:28;;;;;;;5.25;2.88;;;;;;;;;;5053080;28;20020;-40
2022/05/26 14:49:54;;;;;;;5.38;1.90;;;;;;;;;;5054290;28;20070;-40
2022/05/26 14:52:22;;;;;;;2.35;1.58;;;;;;;;;;5054513;28;20375;-40
2022/05/26 14:57:32;;;;;;;1.60;1.38;;;;;;;;;;5054217;28;20036;-40
2022/05/26 14:59:58;;;;;;;2.30;1.30;;;;;;;;;;5052829;28;20016;-41
2022/05/26 15:02:26;;;;;;;2.40;1.63;;;;;;;;;;5053903;28;20052;-40
2022/05/26 15:04:52;;;;;;;6.78;1.77;;;;;;;;;;5054090;28;20017;-40
2022/05/26 15:07:27;;;;;;;2.28;1.98;;;;;;;;;;5053899;28;20072;-40
2022/05/26 15:09:53;;;;;;;1.50;1.40;;;;;;;;;;5053765;28;20056;-40
2022/05/26 15:12:18;;;;;;;1.55;1.30;;;;;;;;;;5054020;28;20048;-40
2022/05/26 15:14:44;;;;;;;13.93;2.75;;;;;;;;;;5053759;28;20099;-40
2022/05/26 15:17:16;;;;;;;13.02;1.60;;;;;;;;;;5053771;28;20033;-40
2022/05/26 15:19:44;;;;;;;2.90;1.38;;;;;;;;;;5054003;28;20136;-40
2022/05/26 15:22:11;;;;;;;4.65;1.88;;;;;;;;;;5053627;28;20071;-40
2022/05/26 15:24:38;;;;;;;2.53;1.55;;;;;;;;;;5053598;28;20021;-39
2022/05/26 15:27:03;;;;;;;3.05;1.73;;;;;;;;;;5053710;28;20064;-40
2022/05/26 15:29:29;;;;;;;5.43;1.88;;;;;;;;;;5053403;28;20111;-40
2022/05/26 15:31:55;;;;;;;2.58;2.08;;;;;;;;;;5053854;28;20401;-40
2022/05/26 15:34:21;;;;;;;3.47;2.00;;;;;;;;;;5053462;28;20033;-40
2022/05/26 15:36:46;;;;;;;2.65;1.30;;;;;;;;;;5052101;28;20029;-40
2022/05/26 15:39:12;;;;;;;2.83;1.48;;;;;;;;;;5053418;28;20059;-40